Pagrindinis puslapis
METAR-TAF:

METAR-TAF

Oro uostai :

Kermanas, Iranas

platuma: 30-15N, ilguma: 056-58E, Aukštis: 1748 m

Dabartinis oras

Ataskaita buvo paskelbta 48 minutes, ne 18:00 UTC
Vėjas 6 kt iš Šiaurės
Temperatūra 16°C
Drėgmė 8%
Slėgis 1027 hPa
Matomumas 10 km arba daugiau
nėra debesų žemiau 1500 m ir nėra kamuolinių lietaus debesų

METAR: OIKK 171800Z 01006KT CAVOK 16/M18 Q1026 A3032

Laikas: 22:18 (18:48 UTC)

Prognozė

Ataskaita buvo paskelbta 1 valandą ir 18 minutes, ne 17:30 UTC
Prognozė galioja nuo 17 metu 18 UTC su 18 metu 24 UTC
Vėjas 8 kt iš Šiaurės/Šiaurės Rytų
Matomumas: 8000 m
Mažai debesys ne aukštis 4000 ft
Laikinai
nuo 18 metu 10 UTC su 18 metu 16 UTC
Vėjas 12 kt iš Vakarų/Šiaurės Vakarų
Mažai debesys ne aukštis 4000 ft, Liūtiniai kamuoliniai debesys.
Išsisklaidę debesys ne aukštis 4500 ft
Su prošvaistėmis ne aukštis 10000 ft

TAF: OIKK 171730Z 1718/1824 02008KT 8000 FEW040 TEMPO 1810/1816 29012KT FEW040CB SCT045 BKN100

Orai ataskaitas ir orų prognozės (METAR, TAF).

turimą stotys yra geltonos ir raudonos taškus žemėlapyje.

Perkelti pele per norėdami pamatyti stoties vardą.

Tada spustelėkite, norėdami matyti oro stebėjimo ir prognozės.

Norėdami pakeisti žemėlapį: spustelėkite ant žalios mygtukų su juodo kryžiaus žemyn,; žalią mygtuką su brūkšneliu, jei norite nutolinti; arba žalių rodyklių gretimoms žemėlapius.


METAR-TAF: